Senneville, Canada
Current Conditions -  °F | °C
As of 8:00 AM on Friday 31 Oct 2014 (Local Time) from CYUL Reporting Station
Broken Clouds Broken Clouds  
Wind Chill: 31°   Ceiling: 12000
Heat Index: 37°   Visibility: 30mi
Dew Point: 27°   Wind: 8mph
Humidity: 65%   Direction: 10°N
Pressure: 30.06"   Gusts: NA
Location:  45.43°N, 73.97°W
Report Text: CYUL 311200Z 01007KT 30SM FEW040 BKN120 BKN240 03/M03 A3006 RMK SC1AS5CI1 SLP182
Loading
Personal Weather Stations






























Interactive Weather Map
Tropical Storm Tracking
New forecast layout! Learn more

10-Day Weather Forecast

Advertisements
Track Severe Weather on mobile